Time;durP1;ratioP1;P1;durP2;ratioP2;P2;SDS_P1;SDS_P2;PMS_P1;PMS_P2;Temp;Humidity;BMP_temperature;BMP_pressure;BME280_temperature;BME280_humidity;BME280_pressure;Samples;Min_cycle;Max_cycle;Signal;HPM_P1;HPM_P2
2023/07/09 00:00:37;;;;;;;7.93;4.20;;;19.60;99.90;;;;;;7371933;32;20521;-56
2023/07/09 00:04:39;;;;;;;8.50;4.35;;;19.50;99.90;;;;;;7376401;32;20103;-57
2023/07/09 00:08:44;;;;;;;8.82;4.35;;;19.50;99.90;;;;;;7373926;32;20114;-57
2023/07/09 00:12:47;;;;;;;6.57;4.28;;;19.30;99.90;;;;;;7380519;32;20249;-57
2023/07/09 00:16:49;;;;;;;7.05;3.85;;;19.20;99.90;;;;;;7378922;32;20294;-57
2023/07/09 00:20:51;;;;;;;7.03;4.68;;;19.20;99.90;;;;;;7384127;32;20134;-56
2023/07/09 00:24:56;;;;;;;10.57;4.50;;;19.20;99.90;;;;;;7375091;32;20102;-57
2023/07/09 00:29:01;;;;;;;7.70;4.37;;;19.20;99.90;;;;;;7369781;32;20564;-56
2023/07/09 00:33:04;;;;;;;10.10;4.65;;;19.10;99.90;;;;;;7373253;32;20287;-57
2023/07/09 00:37:14;;;;;;;9.93;4.32;;;19.10;99.90;;;;;;7384005;32;20366;-57
2023/07/09 00:41:19;;;;;;;8.13;4.37;;;19.00;99.90;;;;;;7374572;32;20198;-57
2023/07/09 00:45:23;;;;;;;7.85;4.28;;;19.00;99.90;;;;;;7375607;32;20554;-56
2023/07/09 00:49:36;;;;;;;9.38;4.35;;;18.90;99.90;;;;;;7363221;32;20107;-57
2023/07/09 00:53:45;;;;;;;9.88;4.80;;;18.90;99.90;;;;;;7374767;32;20115;-57
2023/07/09 00:57:55;;;;;;;12.05;4.32;;;18.90;99.90;;;;;;7375506;32;20119;-57
2023/07/09 01:01:59;;;;;;;9.23;4.62;;;18.80;99.90;;;;;;7375832;32;20107;-57
2023/07/09 01:06:03;;;;;;;9.52;4.30;;;18.80;99.90;;;;;;7379668;32;20148;-57
2023/07/09 01:10:06;;;;;;;7.62;4.60;;;18.80;99.90;;;;;;7382310;32;20103;-56
2023/07/09 01:14:10;;;;;;;8.50;4.45;;;18.80;99.90;;;;;;7380365;32;20107;-57
2023/07/09 01:18:14;;;;;;;6.18;4.18;;;18.90;99.90;;;;;;7357005;32;20106;-56
2023/07/09 01:22:19;;;;;;;7.97;4.50;;;18.80;99.90;;;;;;7370808;32;20197;-56
2023/07/09 01:26:24;;;;;;;9.40;4.60;;;18.80;99.90;;;;;;7375381;32;20106;-57
2023/07/09 01:30:34;;;;;;;7.15;4.30;;;18.70;99.90;;;;;;7379488;32;20212;-57
2023/07/09 01:34:36;;;;;;;9.82;4.72;;;18.70;99.90;;;;;;7375822;32;20354;-56
2023/07/09 01:38:38;;;;;;;8.05;4.68;;;18.70;99.90;;;;;;7382338;32;20126;-56
2023/07/09 01:42:40;;;;;;;11.02;4.43;;;18.60;99.90;;;;;;7368462;32;20449;-56
2023/07/09 01:46:42;;;;;;;10.43;4.72;;;18.60;99.90;;;;;;7376477;32;20114;-57
2023/07/09 01:50:44;;;;;;;7.55;4.60;;;18.50;99.90;;;;;;7378450;32;20460;-57
2023/07/09 01:54:49;;;;;;;8.38;4.75;;;18.40;99.90;;;;;;7378134;32;20129;-57
2023/07/09 01:58:51;;;;;;;9.00;4.80;;;18.40;99.90;;;;;;7367315;32;20478;-57
2023/07/09 02:02:54;;;;;;;7.93;5.18;;;18.30;99.90;;;;;;7376673;32;20098;-56
2023/07/09 02:06:57;;;;;;;8.93;4.90;;;18.20;99.90;;;;;;7373788;32;20210;-56
2023/07/09 02:10:59;;;;;;;10.35;4.93;;;18.10;99.90;;;;;;7366415;32;20133;-57
2023/07/09 02:15:00;;;;;;;7.47;4.55;;;18.00;99.90;;;;;;7376213;32;20115;-57
2023/07/09 02:19:02;;;;;;;7.03;4.78;;;18.00;99.90;;;;;;7375820;32;20515;-57
2023/07/09 02:23:08;;;;;;;8.95;4.70;;;17.90;99.90;;;;;;7377401;32;20107;-57
2023/07/09 02:27:11;;;;;;;10.13;4.80;;;17.90;99.90;;;;;;7374924;32;20111;-57
2023/07/09 02:31:15;;;;;;;8.30;4.95;;;17.90;99.90;;;;;;7378211;32;20241;-54
2023/07/09 02:35:17;;;;;;;10.02;5.03;;;17.80;99.90;;;;;;7378991;32;20114;-56
2023/07/09 02:39:20;;;;;;;7.57;4.68;;;17.80;99.90;;;;;;7363421;32;20524;-56
2023/07/09 02:43:21;;;;;;;8.73;5.00;;;17.70;99.90;;;;;;7382677;32;20321;-56
2023/07/09 02:47:23;;;;;;;8.50;5.25;;;17.70;99.90;;;;;;7380388;32;20179;-56
2023/07/09 02:51:29;;;;;;;8.40;4.55;;;17.70;99.90;;;;;;7373210;32;20164;-56
2023/07/09 02:55:31;;;;;;;6.53;4.78;;;17.70;99.90;;;;;;7377943;32;20115;-56
2023/07/09 02:59:33;;;;;;;7.72;4.60;;;17.60;99.90;;;;;;7379124;32;20157;-56
2023/07/09 03:03:34;;;;;;;7.10;4.80;;;17.60;99.90;;;;;;7380200;32;20163;-56
2023/07/09 03:07:36;;;;;;;9.90;4.70;;;17.60;99.90;;;;;;7384962;32;20316;-56
2023/07/09 03:11:38;;;;;;;9.57;4.97;;;17.60;99.90;;;;;;7384623;32;20171;-56
2023/07/09 03:15:40;;;;;;;6.05;4.20;;;17.60;99.90;;;;;;7380035;32;20537;-56
2023/07/09 03:19:42;;;;;;;10.25;5.32;;;17.60;99.90;;;;;;7383858;32;20115;-56
2023/07/09 03:23:45;;;;;;;13.00;5.80;;;17.60;99.90;;;;;;7380413;32;20164;-56
2023/07/09 03:27:49;;;;;;;5.62;4.80;;;17.50;99.90;;;;;;7370497;32;20131;-56
2023/07/09 03:31:51;;;;;;;6.57;4.70;;;17.50;99.90;;;;;;7377550;32;20157;-55
2023/07/09 03:35:54;;;;;;;7.80;4.35;;;17.50;99.90;;;;;;7368151;32;20107;-55
2023/07/09 03:39:56;;;;;;;9.80;4.85;;;17.40;99.90;;;;;;7377758;32;20198;-55
2023/07/09 03:43:58;;;;;;;16.92;5.05;;;17.40;99.90;;;;;;7367789;32;20683;-55
2023/07/09 03:48:00;;;;;;;8.57;5.05;;;17.40;99.90;;;;;;7379570;32;20209;-55
2023/07/09 03:52:02;;;;;;;7.62;5.18;;;17.40;99.90;;;;;;7376057;32;20106;-55
2023/07/09 03:56:04;;;;;;;9.52;4.90;;;17.30;99.90;;;;;;7382341;32;20133;-55
2023/07/09 04:00:10;;;;;;;7.20;5.05;;;17.40;99.90;;;;;;7374869;32;20660;-55
2023/07/09 04:04:13;;;;;;;8.75;4.93;;;17.40;99.90;;;;;;7376425;32;20107;-55
2023/07/09 04:08:15;;;;;;;9.07;5.07;;;17.50;99.90;;;;;;7377781;32;20496;-55
2023/07/09 04:12:17;;;;;;;9.85;4.93;;;17.50;99.90;;;;;;7370957;32;20313;-55
2023/07/09 04:16:20;;;;;;;9.98;4.65;;;17.60;99.90;;;;;;7372378;32;20418;-55
2023/07/09 04:20:22;;;;;;;10.20;5.37;;;17.60;99.90;;;;;;7382465;32;20161;-55
2023/07/09 04:24:24;;;;;;;7.93;5.37;;;17.70;99.90;;;;;;7368970;32;20263;-55
2023/07/09 04:28:26;;;;;;;9.07;4.72;;;17.80;99.90;;;;;;7370305;32;20171;-55
2023/07/09 04:32:27;;;;;;;8.30;4.82;;;17.80;99.90;;;;;;7369432;32;20137;-55
2023/07/09 04:36:29;;;;;;;6.82;4.35;;;17.90;99.90;;;;;;7377674;32;20171;-55
2023/07/09 04:40:31;;;;;;;9.13;5.05;;;18.00;99.90;;;;;;7372938;32;20577;-55
2023/07/09 04:44:33;;;;;;;9.77;4.40;;;18.20;99.90;;;;;;7377159;32;20473;-55
2023/07/09 04:48:38;;;;;;;7.10;4.85;;;18.40;99.90;;;;;;7375993;32;20166;-55
2023/07/09 04:52:40;;;;;;;9.27;4.82;;;18.70;99.90;;;;;;7371141;32;20517;-56
2023/07/09 04:56:45;;;;;;;6.55;4.53;;;19.00;99.90;;;;;;7371146;32;20110;-55
2023/07/09 05:00:47;;;;;;;6.22;4.40;;;19.30;99.90;;;;;;7373224;32;20169;-55
2023/07/09 05:04:49;;;;;;;10.32;4.50;;;19.70;99.90;;;;;;7366399;32;20118;-55
2023/07/09 05:08:51;;;;;;;8.18;4.47;;;20.10;99.90;;;;;;7366973;32;20598;-55
2023/07/09 05:12:54;;;;;;;7.50;4.18;;;20.50;99.90;;;;;;7366123;32;20110;-55
2023/07/09 05:16:56;;;;;;;7.10;4.32;;;20.90;99.90;;;;;;7373059;32;20577;-55
2023/07/09 05:20:58;;;;;;;8.52;4.65;;;21.50;99.90;;;;;;7365336;32;20461;-55
2023/07/09 05:25:00;;;;;;;8.30;4.70;;;21.90;99.90;;;;;;7368047;32;20125;-55
2023/07/09 05:29:05;;;;;;;6.93;4.43;;;22.40;99.90;;;;;;7370861;32;20134;-56
2023/07/09 05:33:07;;;;;;;8.35;4.80;;;23.00;99.90;;;;;;7374078;32;20255;-55
2023/07/09 05:37:09;;;;;;;9.18;4.28;;;23.30;99.90;;;;;;7368754;32;20115;-55
2023/07/09 05:41:11;;;;;;;7.22;3.83;;;23.60;99.90;;;;;;7365300;32;20112;-55
2023/07/09 05:45:14;;;;;;;8.07;4.72;;;24.00;99.90;;;;;;7374373;32;20319;-55
2023/07/09 05:49:16;;;;;;;5.07;4.10;;;24.60;99.90;;;;;;7381513;32;20114;-55
2023/07/09 05:53:18;;;;;;;8.73;4.60;;;24.90;99.90;;;;;;7375330;32;20337;-55
2023/07/09 05:57:20;;;;;;;12.30;4.43;;;25.40;99.90;;;;;;7378099;32;20111;-55
2023/07/09 06:01:22;;;;;;;8.70;4.62;;;25.60;99.90;;;;;;7368768;32;20643;-55
2023/07/09 06:05:24;;;;;;;6.57;3.95;;;25.60;99.90;;;;;;7372818;32;20098;-56
2023/07/09 06:09:26;;;;;;;8.02;4.12;;;25.70;99.90;;;;;;7370371;32;20127;-55
2023/07/09 06:13:32;;;;;;;6.70;4.25;;;26.20;99.90;;;;;;7368526;32;20236;-55
2023/07/09 06:17:35;;;;;;;7.30;4.22;;;26.60;99.90;;;;;;7372971;32;20133;-56
2023/07/09 06:21:37;;;;;;;6.40;4.12;;;27.10;99.90;;;;;;7369816;32;20557;-56
2023/07/09 06:25:39;;;;;;;7.70;4.43;;;27.30;99.90;;;;;;7369083;32;20300;-56
2023/07/09 06:29:41;;;;;;;10.63;4.12;;;27.80;99.90;;;;;;7368869;32;20103;-56
2023/07/09 06:33:42;;;;;;;6.43;3.92;;;28.10;99.90;;;;;;7366959;32;20130;-57
2023/07/09 06:37:44;;;;;;;6.78;4.40;;;28.60;99.90;;;;;;7365242;32;20147;-57
2023/07/09 06:41:46;;;;;;;7.45;4.37;;;28.90;99.90;;;;;;7366242;32;20647;-57
2023/07/09 06:46:01;;;;;;;7.30;4.37;;;29.10;99.90;;;;;;7361091;32;20135;-57
2023/07/09 06:50:04;;;;;;;7.40;4.37;;;29.40;99.90;;;;;;7366910;32;20474;-57
2023/07/09 06:54:08;;;;;;;8.52;4.20;;;29.70;99.90;;;;;;7367322;32;20210;-57
2023/07/09 06:58:10;;;;;;;5.55;4.37;;;30.10;99.90;;;;;;7370126;32;20214;-57
2023/07/09 07:02:12;;;;;;;10.13;5.22;;;30.20;99.90;;;;;;7366954;32;20107;-57
2023/07/09 07:06:15;;;;;;;8.40;4.82;;;30.20;99.90;;;;;;7379378;32;20107;-57
2023/07/09 07:10:17;;;;;;;9.77;4.78;;;30.50;99.90;;;;;;7377107;32;20438;-57
2023/07/09 07:14:19;;;;;;;6.05;4.32;;;30.60;99.90;;;;;;7370691;32;20217;-57
2023/07/09 07:18:20;;;;;;;8.80;4.20;;;30.90;99.90;;;;;;7366772;32;20173;-57
2023/07/09 07:22:22;;;;;;;6.90;4.20;;;31.00;99.90;;;;;;7370195;32;20107;-57
2023/07/09 07:26:24;;;;;;;7.60;4.30;;;31.00;99.90;;;;;;7369284;32;20103;-57
2023/07/09 07:30:26;;;;;;;8.32;4.55;;;30.90;99.90;;;;;;7376669;32;20118;-57
2023/07/09 07:34:28;;;;;;;7.78;4.35;;;31.20;99.90;;;;;;7376356;32;20137;-57
2023/07/09 07:38:30;;;;;;;9.00;4.53;;;31.20;99.90;;;;;;7373599;32;20126;-57
2023/07/09 07:42:32;;;;;;;7.15;4.75;;;31.00;99.90;;;;;;7377562;32;20115;-57
2023/07/09 07:46:34;;;;;;;7.87;4.70;;;30.80;99.90;;;;;;7376079;32;20148;-57
2023/07/09 07:50:38;;;;;;;9.07;4.68;;;30.40;99.90;;;;;;7369970;32;20129;-57
2023/07/09 07:54:39;;;;;;;7.95;4.72;;;30.00;99.90;;;;;;7363265;32;20227;-57
2023/07/09 07:58:41;;;;;;;7.70;4.30;;;29.80;99.90;;;;;;7369214;32;20520;-57
2023/07/09 08:02:43;;;;;;;7.50;4.22;;;29.80;99.90;;;;;;7370088;32;20585;-57
2023/07/09 08:06:46;;;;;;;8.65;5.07;;;29.90;99.90;;;;;;7377954;32;20212;-57
2023/07/09 08:10:49;;;;;;;8.07;4.18;;;30.20;99.90;;;;;;7371475;32;20122;-57
2023/07/09 08:14:51;;;;;;;6.90;4.43;;;30.60;99.90;;;;;;7375039;32;20194;-57
2023/07/09 08:18:54;;;;;;;8.93;5.22;;;31.10;99.90;;;;;;7365992;32;20131;-57
2023/07/09 08:22:56;;;;;;;9.35;5.12;;;31.60;99.90;;;;;;7376036;32;20107;-57
2023/07/09 08:27:00;;;;;;;7.80;4.80;;;32.10;99.90;;;;;;7370841;32;20107;-57
2023/07/09 08:31:02;;;;;;;10.93;4.85;;;32.20;99.90;;;;;;7371449;32;20123;-57
2023/07/09 08:35:05;;;;;;;6.70;4.87;;;32.50;99.90;;;;;;7371363;32;20095;-57
2023/07/09 08:39:26;;;;;;;12.27;5.30;;;33.00;99.90;;;;;;7375821;32;20100;-57
2023/07/09 08:43:54;;;;;;;9.32;4.85;;;33.30;99.90;;;;;;7365694;32;20202;-57
2023/07/09 08:48:08;;;;;;;10.13;4.97;;;33.50;99.90;;;;;;7368379;32;20115;-57
2023/07/09 08:52:35;;;;;;;7.78;4.95;;;33.60;99.90;;;;;;7377349;32;20234;-57
2023/07/09 08:56:36;;;;;;;6.18;5.18;;;34.10;99.10;;;;;;7365664;32;20133;-57
2023/07/09 09:00:48;;;;;;;8.00;4.60;;;34.50;99.90;;;;;;7366683;32;20130;-57
2023/07/09 09:04:52;;;;;;;7.00;4.90;;;34.70;99.90;;;;;;7372488;32;20099;-57
2023/07/09 09:09:21;;;;;;;10.07;5.00;;;34.70;99.90;;;;;;7362596;32;20123;-57
2023/07/09 09:13:27;;;;;;;10.38;4.72;;;35.10;99.90;;;;;;7370222;32;20099;-57
2023/07/09 09:17:39;;;;;;;7.37;4.40;;;35.50;97.80;;;;;;7370484;32;20140;-57
2023/07/09 09:21:43;;;;;;;7.90;4.65;;;35.80;96.20;;;;;;7373878;32;20288;-57
2023/07/09 09:25:51;;;;;;;6.60;4.53;;;35.80;94.50;;;;;;7372326;32;20430;-57
2023/07/09 09:30:19;;;;;;;6.60;3.95;;;36.20;96.40;;;;;;7376378;32;20435;-57
2023/07/09 09:34:25;;;;;;;5.82;4.22;;;36.20;93.60;;;;;;7369685;32;20161;-58
2023/07/09 09:38:27;;;;;;;9.68;4.22;;;36.30;95.10;;;;;;7369427;32;20493;-57
2023/07/09 09:42:29;;;;;;;9.23;3.70;;;36.40;90.40;;;;;;7379530;32;20133;-57
2023/07/09 09:46:32;;;;;;;6.10;3.83;;;36.50;93.70;;;;;;7377110;32;20522;-57
2023/07/09 09:50:35;;;;;;;6.75;3.75;;;36.60;91.60;;;;;;7375915;32;20103;-57
2023/07/09 09:54:41;;;;;;;7.93;4.22;;;36.60;86.50;;;;;;7368213;32;20115;-57
2023/07/09 09:58:43;;;;;;;8.77;4.12;;;34.40;91.60;;;;;;7374740;32;20151;-57
2023/07/09 10:02:47;;;;;;;7.57;4.12;;;35.60;91.10;;;;;;7374023;32;20130;-58
2023/07/09 10:06:56;;;;;;;11.90;4.55;;;34.30;88.50;;;;;;7379965;32;20564;-57
2023/07/09 10:11:18;;;;;;;6.07;3.75;;;34.20;89.50;;;;;;7374796;32;20130;-57
2023/07/09 10:15:29;;;;;;;7.97;4.43;;;34.90;91.80;;;;;;7378542;32;20467;-57
2023/07/09 10:19:48;;;;;;;9.00;3.70;;;35.30;91.70;;;;;;7370962;32;20226;-57
2023/07/09 10:24:13;;;;;;;7.15;3.70;;;36.00;86.40;;;;;;7373513;32;20544;-57
2023/07/09 10:28:47;;;;;;;6.18;3.87;;;36.50;86.20;;;;;;7379933;32;20169;-57
2023/07/09 10:33:06;;;;;;;5.80;3.70;;;36.60;83.70;;;;;;7375711;32;20119;-57
2023/07/09 10:37:11;;;;;;;7.90;3.83;;;36.50;79.20;;;;;;7379655;32;20133;-57
2023/07/09 10:41:18;;;;;;;6.30;3.20;;;36.40;82.40;;;;;;7382232;32;20191;-57
2023/07/09 10:45:46;;;;;;;10.73;3.65;;;36.50;79.60;;;;;;7375312;32;20578;-57
2023/07/09 10:49:49;;;;;;;5.85;3.42;;;36.40;77.20;;;;;;7374464;32;20103;-57
2023/07/09 10:54:02;;;;;;;5.53;3.45;;;36.40;79.30;;;;;;7382849;32;20219;-57
2023/07/09 10:58:34;;;;;;;9.30;3.45;;;36.30;75.30;;;;;;7378090;32;20111;-58
2023/07/09 11:02:38;;;;;;;5.18;3.47;;;36.40;72.80;;;;;;7376583;32;20119;-57
2023/07/09 11:06:47;;;;;;;9.18;3.55;;;36.20;77.40;;;;;;7378186;32;20660;-58
2023/07/09 11:11:16;;;;;;;7.87;3.83;;;36.30;77.00;;;;;;7378009;32;20137;-58
2023/07/09 11:15:27;;;;;;;5.00;3.45;;;36.20;76.60;;;;;;7376516;32;20559;-57
2023/07/09 11:19:29;;;;;;;4.95;3.37;;;36.10;73.40;;;;;;7378045;32;20114;-57
2023/07/09 11:23:50;;;;;;;7.53;3.80;;;36.10;80.10;;;;;;7383008;32;20152;-57
2023/07/09 11:28:03;;;;;;;6.75;3.65;;;36.00;82.70;;;;;;7373956;32;20509;-58
2023/07/09 11:32:09;;;;;;;7.05;3.33;;;36.10;78.70;;;;;;7364235;32;20452;-58
2023/07/09 11:36:25;;;;;;;6.65;3.10;;;36.10;80.00;;;;;;7377891;32;20096;-57
2023/07/09 11:40:27;;;;;;;6.82;3.55;;;35.90;72.00;;;;;;7376160;32;20755;-57
2023/07/09 11:44:32;;;;;;;4.70;3.08;;;35.90;74.50;;;;;;7376514;32;20158;-57
2023/07/09 11:48:36;;;;;;;8.98;3.30;;;35.40;71.80;;;;;;7372798;32;20238;-57
2023/07/09 11:52:47;;;;;;;7.07;3.20;;;35.50;72.20;;;;;;7381743;32;20138;-57
2023/07/09 11:57:01;;;;;;;4.80;2.92;;;35.20;74.70;;;;;;7372415;32;20497;-57
2023/07/09 12:01:12;;;;;;;5.05;3.03;;;34.90;71.40;;;;;;7377631;32;20179;-57
2023/07/09 12:05:21;;;;;;;6.30;3.40;;;35.00;70.10;;;;;;7380631;32;20131;-57
2023/07/09 12:09:22;;;;;;;4.82;3.35;;;35.10;72.00;;;;;;7373843;32;20137;-57
2023/07/09 12:13:24;;;;;;;6.43;3.85;;;35.20;68.60;;;;;;7374649;32;20118;-57
2023/07/09 12:17:28;;;;;;;6.68;3.72;;;35.20;70.40;;;;;;7381031;32;20131;-57
2023/07/09 12:21:37;;;;;;;7.28;3.62;;;35.00;74.00;;;;;;7379252;32;20611;-57
2023/07/09 12:25:46;;;;;;;6.20;3.47;;;35.10;72.20;;;;;;7372564;32;20125;-57
2023/07/09 12:29:51;;;;;;;5.78;3.50;;;35.00;75.40;;;;;;7377426;32;20564;-56
2023/07/09 12:33:54;;;;;;;6.47;3.92;;;35.00;69.40;;;;;;7380190;32;20118;-57
2023/07/09 12:37:58;;;;;;;4.87;3.40;;;34.80;75.00;;;;;;7375689;32;20126;-57
2023/07/09 12:42:02;;;;;;;7.68;3.83;;;34.90;74.10;;;;;;7365501;32;20258;-57
2023/07/09 12:46:04;;;;;;;6.65;4.07;;;34.70;76.60;;;;;;7369734;32;20103;-57
2023/07/09 12:50:32;;;;;;;6.10;3.55;;;34.70;73.80;;;;;;7376079;32;20107;-57
2023/07/09 12:54:34;;;;;;;7.22;4.30;;;34.60;78.70;;;;;;7369866;32;20626;-57
2023/07/09 12:58:37;;;;;;;5.97;4.30;;;34.20;81.60;;;;;;7379735;32;20158;-57
2023/07/09 13:02:39;;;;;;;9.10;4.15;;;33.80;80.00;;;;;;7372531;32;20599;-57
2023/07/09 13:06:42;;;;;;;5.37;3.45;;;33.70;77.00;;;;;;7381183;32;20141;-57
2023/07/09 13:10:44;;;;;;;8.20;3.92;;;33.30;78.50;;;;;;7378611;32;20990;-57
2023/07/09 13:15:04;;;;;;;8.02;4.05;;;33.00;82.80;;;;;;7377801;32;20107;-57
2023/07/09 13:19:06;;;;;;;6.10;3.95;;;32.70;83.80;;;;;;7370443;32;20103;-57
2023/07/09 13:23:15;;;;;;;6.40;4.35;;;32.30;79.70;;;;;;7375920;32;20130;-58
2023/07/09 13:27:16;;;;;;;5.25;3.90;;;32.10;87.20;;;;;;7372637;32;20141;-58
2023/07/09 13:31:20;;;;;;;9.48;4.18;;;31.70;87.40;;;;;;7373218;32;20110;-57
2023/07/09 13:35:22;;;;;;;11.02;4.12;;;31.20;95.90;;;;;;7372704;32;20107;-58
2023/07/09 13:39:24;;;;;;;9.35;5.10;;;30.80;99.90;;;;;;7370428;32;20149;-57
2023/07/09 13:43:35;;;;;;;7.37;4.20;;;30.60;99.90;;;;;;7372994;32;20099;-57
2023/07/09 13:47:37;;;;;;;7.62;4.40;;;30.40;99.90;;;;;;7364738;32;20182;-57
2023/07/09 13:51:39;;;;;;;8.20;4.70;;;30.30;99.90;;;;;;7379493;32;20095;-57
2023/07/09 13:55:42;;;;;;;9.68;4.45;;;30.10;99.90;;;;;;7380027;32;20151;-57
2023/07/09 13:59:44;;;;;;;6.85;4.40;;;29.80;99.90;;;;;;7378223;32;20827;-57
2023/07/09 14:03:46;;;;;;;6.40;3.87;;;29.50;99.90;;;;;;7377198;32;20107;-57
2023/07/09 14:07:48;;;;;;;8.07;4.28;;;29.40;99.90;;;;;;7375439;32;20102;-57
2023/07/09 14:11:52;;;;;;;6.45;4.50;;;29.40;99.90;;;;;;7377738;32;20555;-57
2023/07/09 14:15:54;;;;;;;9.07;4.00;;;29.10;99.90;;;;;;7376582;32;20572;-56
2023/07/09 14:19:58;;;;;;;6.87;3.97;;;29.00;99.90;;;;;;7372274;32;20136;-56
2023/07/09 14:24:00;;;;;;;13.65;4.30;;;28.90;99.90;;;;;;7378375;32;20594;-56
2023/07/09 14:28:09;;;;;;;7.70;3.60;;;28.50;99.90;;;;;;7379797;32;20548;-56
2023/07/09 14:32:36;;;;;;;9.73;3.75;;;27.30;99.90;;;;;;7380889;32;20107;-56
2023/07/09 14:36:38;;;;;;;8.18;4.22;;;26.00;99.90;;;;;;7382661;32;20099;-56
2023/07/09 14:40:40;;;;;;;12.68;4.35;;;25.20;99.90;;;;;;7376619;32;20186;-57
2023/07/09 14:44:42;;;;;;;10.05;4.05;;;24.60;99.90;;;;;;7369330;32;20125;-57
2023/07/09 14:48:44;;;;;;;8.77;4.07;;;24.20;99.90;;;;;;7384335;32;20552;-56
2023/07/09 14:52:46;;;;;;;9.65;5.07;;;24.10;99.90;;;;;;7375718;32;20152;-56
2023/07/09 14:56:50;;;;;;;7.45;4.00;;;24.10;99.90;;;;;;7370452;32;20126;-56
2023/07/09 15:00:52;;;;;;;8.15;4.47;;;24.10;99.90;;;;;;7383053;32;20588;-56
2023/07/09 15:04:54;;;;;;;6.70;4.20;;;24.10;99.90;;;;;;7376618;32;20339;-56
2023/07/09 15:09:00;;;;;;;8.27;5.15;;;23.90;99.90;;;;;;7379636;32;20126;-57
2023/07/09 15:13:02;;;;;;;9.20;5.20;;;23.60;99.90;;;;;;7363557;32;20127;-57
2023/07/09 15:17:04;;;;;;;7.20;5.05;;;23.40;99.90;;;;;;7363082;32;20103;-57
2023/07/09 15:21:06;;;;;;;7.90;5.28;;;23.30;99.90;;;;;;7373693;32;20265;-57
2023/07/09 15:25:13;;;;;;;8.07;5.00;;;23.10;99.90;;;;;;7380728;32;20141;-57
2023/07/09 15:29:15;;;;;;;11.55;5.62;;;23.00;99.90;;;;;;7373016;32;20121;-56
2023/07/09 15:33:20;;;;;;;7.68;5.00;;;22.80;99.90;;;;;;7374823;32;20162;-57
2023/07/09 15:37:22;;;;;;;8.55;5.40;;;22.50;99.90;;;;;;7379199;32;20220;-57
2023/07/09 15:41:23;;;;;;;9.60;5.05;;;22.30;99.90;;;;;;7376473;32;20121;-57
2023/07/09 15:45:25;;;;;;;8.18;5.50;;;22.30;99.90;;;;;;7375291;32;20106;-57
2023/07/09 15:49:27;;;;;;;7.65;5.07;;;22.20;99.90;;;;;;7382784;32;20111;-57
2023/07/09 15:53:30;;;;;;;5.93;4.82;;;22.20;99.90;;;;;;7382387;32;20111;-56
2023/07/09 15:57:32;;;;;;;7.70;4.43;;;22.30;99.90;;;;;;7376657;32;20104;-57
2023/07/09 16:01:42;;;;;;;9.05;5.20;;;22.40;99.90;;;;;;7381067;32;20529;-56
2023/07/09 16:05:45;;;;;;;8.35;5.18;;;22.40;99.90;;;;;;7381481;32;20133;-57
2023/07/09 16:09:47;;;;;;;9.32;5.43;;;22.30;99.90;;;;;;7371341;32;20265;-57
2023/07/09 16:13:49;;;;;;;10.38;6.32;;;22.30;99.90;;;;;;7380910;32;20512;-57
2023/07/09 16:17:52;;;;;;;7.72;5.47;;;22.30;99.90;;;;;;7380369;32;20207;-56
2023/07/09 16:22:06;;;;;;;9.45;5.75;;;22.20;99.90;;;;;;7361184;32;20159;-57
2023/07/09 16:26:09;;;;;;;7.43;4.57;;;22.40;99.90;;;;;;7378728;32;20479;-56
2023/07/09 16:30:23;;;;;;;5.18;4.43;;;22.60;99.90;;;;;;7369324;32;20103;-57
2023/07/09 16:34:28;;;;;;;7.70;5.35;;;22.80;99.90;;;;;;7368710;32;20158;-57
2023/07/09 16:38:32;;;;;;;9.27;5.60;;;22.80;99.90;;;;;;7365035;32;20320;-57
2023/07/09 16:42:34;;;;;;;8.52;5.37;;;22.70;99.90;;;;;;7365132;32;20164;-56
2023/07/09 16:46:36;;;;;;;9.73;5.03;;;22.80;99.90;;;;;;7372395;32;20290;-57
2023/07/09 16:50:38;;;;;;;8.50;5.97;;;23.00;99.90;;;;;;7374631;32;20121;-57
2023/07/09 16:54:40;;;;;;;8.80;5.90;;;22.90;99.90;;;;;;7374066;32;20201;-57
2023/07/09 16:58:42;;;;;;;9.02;5.85;;;22.80;99.90;;;;;;7377016;32;20506;-57
2023/07/09 17:02:44;;;;;;;7.28;5.18;;;22.80;99.90;;;;;;7378086;32;20133;-57
2023/07/09 17:06:46;;;;;;;9.80;6.18;;;22.90;99.90;;;;;;7370194;32;20110;-57
2023/07/09 17:10:49;;;;;;;10.70;6.68;;;22.90;99.90;;;;;;7371242;32;20125;-57
2023/07/09 17:14:51;;;;;;;9.35;5.95;;;22.90;99.90;;;;;;7378237;32;20582;-56
2023/07/09 17:18:52;;;;;;;15.23;7.75;;;22.90;99.90;;;;;;7373001;32;20437;-56
2023/07/09 17:22:56;;;;;;;9.52;5.62;;;23.00;99.90;;;;;;7378465;32;20509;-56
2023/07/09 17:26:58;;;;;;;10.38;5.87;;;23.00;99.90;;;;;;7379418;32;20111;-56
2023/07/09 17:31:00;;;;;;;9.20;5.30;;;23.10;99.90;;;;;;7369938;32;20107;-56
2023/07/09 17:35:03;;;;;;;9.90;5.30;;;23.10;99.90;;;;;;7375706;32;20103;-57
2023/07/09 17:39:05;;;;;;;6.22;5.07;;;23.10;99.90;;;;;;7373060;32;20261;-56
2023/07/09 17:43:26;;;;;;;10.25;5.50;;;23.10;99.90;;;;;;7371067;32;20131;-56
2023/07/09 17:47:28;;;;;;;8.50;5.62;;;23.10;99.90;;;;;;7370473;32;20126;-57
2023/07/09 17:51:29;;;;;;;5.10;4.60;;;23.20;99.90;;;;;;7378600;32;20167;-57
2023/07/09 17:55:31;;;;;;;7.43;5.35;;;23.50;99.90;;;;;;7376428;32;20129;-57
2023/07/09 17:59:36;;;;;;;8.23;5.53;;;23.40;99.90;;;;;;7372167;32;20516;-57
2023/07/09 18:03:38;;;;;;;9.00;5.65;;;23.50;99.90;;;;;;7369721;32;20107;-57
2023/07/09 18:07:40;;;;;;;7.37;5.07;;;23.50;99.90;;;;;;7377452;32;20129;-57
2023/07/09 18:11:42;;;;;;;6.28;5.10;;;23.50;99.90;;;;;;7363296;32;20126;-58
2023/07/09 18:15:45;;;;;;;7.95;5.57;;;23.70;99.90;;;;;;7372979;32;20132;-57
2023/07/09 18:19:47;;;;;;;8.02;5.57;;;23.70;99.90;;;;;;7375755;32;20099;-57
2023/07/09 18:23:50;;;;;;;8.63;5.20;;;23.60;99.90;;;;;;7378328;32;20107;-57
2023/07/09 18:27:56;;;;;;;7.37;5.95;;;23.50;99.90;;;;;;7377232;32;20106;-57
2023/07/09 18:32:02;;;;;;;7.18;5.18;;;23.60;99.90;;;;;;7363067;32;20141;-57
2023/07/09 18:36:04;;;;;;;10.45;5.68;;;23.60;99.90;;;;;;7370460;32;20107;-57
2023/07/09 18:40:08;;;;;;;7.70;5.53;;;23.50;99.90;;;;;;7374630;32;20160;-58
2023/07/09 18:44:21;;;;;;;7.62;5.60;;;23.50;99.90;;;;;;7365920;32;20107;-57
2023/07/09 18:48:24;;;;;;;7.97;5.62;;;23.50;99.90;;;;;;7374607;32;20157;-57
2023/07/09 18:52:28;;;;;;;10.02;5.40;;;23.40;99.90;;;;;;7363959;32;20198;-58
2023/07/09 18:56:31;;;;;;;8.52;6.00;;;23.20;99.90;;;;;;7370289;32;20392;-57
2023/07/09 19:00:33;;;;;;;8.85;5.82;;;23.20;99.90;;;;;;7372135;32;20115;-58
2023/07/09 19:04:35;;;;;;;7.47;5.32;;;23.00;99.90;;;;;;7379799;32;20102;-58
2023/07/09 19:08:37;;;;;;;6.75;5.57;;;22.90;99.90;;;;;;7371645;32;20502;-58
2023/07/09 19:12:38;;;;;;;7.95;5.93;;;22.90;99.90;;;;;;7373270;32;20628;-58
2023/07/09 19:16:48;;;;;;;8.10;5.87;;;22.80;99.90;;;;;;7383452;32;20216;-57
2023/07/09 19:20:51;;;;;;;9.57;6.22;;;22.90;99.90;;;;;;7381811;32;20250;-58
2023/07/09 19:24:53;;;;;;;12.60;6.18;;;22.90;99.90;;;;;;7369602;32;20183;-57
2023/07/09 19:28:55;;;;;;;9.77;6.57;;;22.90;99.90;;;;;;7381340;32;20103;-58
2023/07/09 19:32:59;;;;;;;7.65;6.20;;;22.80;99.90;;;;;;7383768;32;20133;-57
2023/07/09 19:37:11;;;;;;;11.15;6.30;;;22.60;99.90;;;;;;7383244;32;20435;-58
2023/07/09 19:41:14;;;;;;;10.00;6.97;;;22.60;99.90;;;;;;7377938;32;20107;-57
2023/07/09 19:45:21;;;;;;;7.45;5.85;;;22.50;99.90;;;;;;7371205;32;20469;-57
2023/07/09 19:49:22;;;;;;;6.70;6.00;;;22.40;99.90;;;;;;7382996;32;20168;-57
2023/07/09 19:53:26;;;;;;;8.65;6.30;;;22.30;99.90;;;;;;7370625;32;20137;-58
2023/07/09 19:57:29;;;;;;;9.57;6.57;;;22.20;99.90;;;;;;7378100;32;20225;-58
2023/07/09 20:01:31;;;;;;;9.43;7.95;;;22.20;99.90;;;;;;7381069;32;20417;-56
2023/07/09 20:05:33;;;;;;;9.85;7.10;;;22.20;99.90;;;;;;7373600;32;20534;-57
2023/07/09 20:09:35;;;;;;;9.30;7.12;;;22.10;99.90;;;;;;7365405;32;20436;-57
2023/07/09 20:13:37;;;;;;;12.30;8.70;;;22.00;99.90;;;;;;7365785;32;20107;-56
2023/07/09 20:17:39;;;;;;;10.68;8.48;;;22.10;99.90;;;;;;7375332;32;20127;-56
2023/07/09 20:21:42;;;;;;;12.35;8.70;;;22.00;99.90;;;;;;7377679;32;20126;-56
2023/07/09 20:25:45;;;;;;;12.82;9.32;;;22.10;99.90;;;;;;7380097;32;20584;-56
2023/07/09 20:29:47;;;;;;;10.18;8.23;;;21.90;99.90;;;;;;7381536;32;20527;-57
2023/07/09 20:34:14;;;;;;;13.00;9.18;;;21.80;99.90;;;;;;7380085;32;20133;-56
2023/07/09 20:38:19;;;;;;;11.40;9.38;;;21.70;99.90;;;;;;7366318;32;20104;-56
2023/07/09 20:42:21;;;;;;;13.35;9.43;;;21.60;99.90;;;;;;7366285;32;20150;-57
2023/07/09 20:46:23;;;;;;;12.55;8.77;;;21.60;99.90;;;;;;7379516;32;20134;-57
2023/07/09 20:50:26;;;;;;;12.25;9.52;;;21.60;99.90;;;;;;7369003;32;20103;-57
2023/07/09 20:54:29;;;;;;;13.25;9.98;;;21.70;99.90;;;;;;7377554;32;20448;-55
2023/07/09 20:58:31;;;;;;;14.85;10.52;;;21.60;99.90;;;;;;7374358;32;20194;-56
2023/07/09 21:02:33;;;;;;;14.43;11.32;;;21.60;99.90;;;;;;7380662;32;20163;-56
2023/07/09 21:06:35;;;;;;;16.50;11.15;;;21.60;99.90;;;;;;7378635;32;20155;-56
2023/07/09 21:10:36;;;;;;;17.60;13.07;;;21.60;99.90;;;;;;7374623;32;20460;-56